Time;durP1;ratioP1;P1;durP2;ratioP2;P2;SDS_P1;SDS_P2;PMS_P1;PMS_P2;Temp;Humidity;BMP_temperature;BMP_pressure;BME280_temperature;BME280_humidity;BME280_pressure;Samples;Min_cycle;Max_cycle;Signal;HPM_P1;HPM_P2
2021/12/18 00:00:14;;;;;;;49.25;45.53;;;-1.20;99.90;;;;;;4154987;28;20057;-51
2021/12/18 00:02:18;;;;;;;48.53;44.58;;;-1.20;99.90;;;;;;4156075;28;20091;-50
2021/12/18 00:04:20;;;;;;;42.58;39.33;;;-1.10;99.90;;;;;;4158349;28;20041;-51
2021/12/18 00:06:22;;;;;;;45.60;42.05;;;-1.10;99.90;;;;;;4159935;28;20052;-52
2021/12/18 00:08:25;;;;;;;40.38;37.80;;;-1.10;99.90;;;;;;4160524;28;20041;-51
2021/12/18 00:10:29;;;;;;;41.33;38.30;;;-1.10;99.90;;;;;;4158357;28;20068;-50
2021/12/18 00:12:31;;;;;;;43.00;39.63;;;-1.10;99.90;;;;;;4157657;28;20058;-51
2021/12/18 00:14:33;;;;;;;48.10;44.50;;;-1.20;99.90;;;;;;4154260;28;20091;-52
2021/12/18 00:16:35;;;;;;;44.35;40.50;;;-1.20;99.90;;;;;;4151046;28;20041;-52
2021/12/18 00:18:38;;;;;;;42.53;39.80;;;-1.20;99.90;;;;;;4152284;28;20034;-49
2021/12/18 00:20:40;;;;;;;43.55;40.85;;;-1.10;99.90;;;;;;4160129;28;20041;-52
2021/12/18 00:22:44;;;;;;;47.10;43.42;;;-1.00;99.90;;;;;;4159989;28;20451;-52
2021/12/18 00:24:46;;;;;;;57.92;50.30;;;-1.00;99.90;;;;;;4160879;28;20045;-52
2021/12/18 00:26:48;;;;;;;57.35;51.20;;;-1.00;99.90;;;;;;4159373;28;20437;-51
2021/12/18 00:28:50;;;;;;;56.80;51.17;;;-1.10;99.90;;;;;;4155646;28;20044;-51
2021/12/18 00:30:52;;;;;;;55.58;49.97;;;-1.20;99.90;;;;;;4150941;28;20044;-48
2021/12/18 00:32:54;;;;;;;59.00;53.30;;;-1.20;99.90;;;;;;4161601;28;20061;-49
2021/12/18 00:34:57;;;;;;;51.20;46.42;;;-1.30;99.90;;;;;;4158783;28;20120;-52
2021/12/18 00:36:59;;;;;;;47.25;43.92;;;-1.40;99.90;;;;;;4162207;28;20037;-49
2021/12/18 00:39:01;;;;;;;46.40;42.60;;;-1.50;99.90;;;;;;4157170;28;20038;-51
2021/12/18 00:43:37;;;;;;;51.70;46.97;;;-1.60;99.90;;;;;;4162972;28;20038;-52
2021/12/18 00:45:35;;;;;;;55.30;50.40;;;-1.70;99.90;;;;;;4164142;28;20037;-50
2021/12/18 00:47:38;;;;;;;;;;;-1.80;99.90;;;;;;4157910;28;20049;-52
2021/12/18 00:49:40;;;;;;;50.47;46.67;;;-1.80;99.90;;;;;;4165268;28;19925;-50
2021/12/18 00:51:43;;;;;;;52.53;48.30;;;-1.90;99.90;;;;;;4159776;28;20068;-52
2021/12/18 00:53:45;;;;;;;51.08;46.97;;;-1.90;99.90;;;;;;4162817;28;20501;-51
2021/12/18 00:55:49;;;;;;;50.75;47.20;;;-1.90;99.90;;;;;;4151915;28;20049;-49
2021/12/18 00:57:52;;;;;;;48.30;44.58;;;-2.00;99.90;;;;;;4164884;28;20516;-52
2021/12/18 00:59:59;;;;;;;50.70;47.17;;;-2.00;99.90;;;;;;4162591;28;20044;-52
2021/12/18 01:02:03;;;;;;;51.33;47.83;;;-2.00;99.90;;;;;;4158216;28;20037;-51
2021/12/18 01:04:05;;;;;;;43.88;40.80;;;-1.90;99.90;;;;;;4160277;28;20067;-50
2021/12/18 01:06:07;;;;;;;45.00;42.38;;;-1.70;99.90;;;;;;4163749;28;20045;-52
2021/12/18 01:08:09;;;;;;;43.20;40.15;;;-1.60;99.90;;;;;;4157022;28;20045;-50
2021/12/18 01:10:38;;;;;;;39.60;37.20;;;-1.50;99.90;;;;;;4163989;28;20029;-52
2021/12/18 01:12:44;;;;;;;40.20;37.85;;;-1.40;99.90;;;;;;4162090;28;20045;-51
2021/12/18 01:15:01;;;;;;;41.67;39.15;;;-1.40;99.90;;;;;;4164827;28;20067;-51
2021/12/18 01:23:50;;;;;;;42.90;39.60;;;-1.50;99.90;;;;;;4162686;28;20080;-49
2021/12/18 01:25:53;;;;;;;;;;;-1.50;99.90;;;;;;4157099;28;20053;-52
2021/12/18 01:27:55;;;;;;;40.30;37.63;;;-1.50;99.90;;;;;;4156121;28;19933;-49
2021/12/18 01:29:58;;;;;;;44.25;41.05;;;-1.50;99.90;;;;;;4159063;28;20073;-51
2021/12/18 01:32:00;;;;;;;42.22;39.35;;;-1.50;99.90;;;;;;4156300;28;20041;-52
2021/12/18 01:34:02;;;;;;;48.72;44.47;;;-1.50;99.90;;;;;;4160561;28;20037;-51
2021/12/18 01:36:05;;;;;;;52.83;48.58;;;-1.50;99.90;;;;;;4156044;28;20049;-50
2021/12/18 01:38:07;;;;;;;49.35;45.55;;;-1.70;99.90;;;;;;4158634;28;20033;-51
2021/12/18 01:40:10;;;;;;;49.92;46.20;;;-1.80;99.90;;;;;;4162825;28;20041;-51
2021/12/18 01:52:18;;;;;;;50.10;46.45;;;-2.00;99.90;;;;;;4141402;28;20049;-53
2021/12/18 01:54:20;;;;;;;55.50;49.83;;;-2.00;99.90;;;;;;4143916;28;20541;-52
2021/12/18 01:56:26;;;;;;;54.50;49.20;;;-2.10;99.90;;;;;;4143496;28;20050;-51
2021/12/18 01:58:28;;;;;;;54.65;49.63;;;-2.10;99.90;;;;;;4143792;28;20041;-50
2021/12/18 02:00:35;;;;;;;56.38;50.78;;;-2.10;99.90;;;;;;4143623;28;20404;-52
2021/12/18 02:02:38;;;;;;;47.92;43.95;;;-2.10;99.90;;;;;;4138173;28;20127;-50
2021/12/18 02:04:40;;;;;;;47.50;44.03;;;-2.10;99.90;;;;;;4141360;28;20150;-51
2021/12/18 02:06:42;;;;;;;51.85;47.55;;;-2.10;99.90;;;;;;4142513;28;20057;-50
2021/12/18 02:08:45;;;;;;;49.50;45.33;;;-2.10;99.90;;;;;;4144273;28;20050;-51
2021/12/18 02:10:53;;;;;;;49.90;46.22;;;-2.00;99.90;;;;;;4127742;28;20046;-52
2021/12/18 02:13:20;;;;;;;50.65;46.95;;;-2.00;99.90;;;;;;4143592;28;20045;-51
2021/12/18 02:22:38;;;;;;;48.65;44.85;;;-2.10;99.90;;;;;;4148438;28;20046;-49
2021/12/18 02:24:40;;;;;;;45.30;42.50;;;-2.00;99.90;;;;;;4162951;28;20037;-52
2021/12/18 02:26:43;;;;;;;49.05;45.55;;;-2.00;99.90;;;;;;4158967;28;20061;-52
2021/12/18 02:28:48;;;;;;;48.42;44.97;;;-2.00;99.90;;;;;;4163349;28;20532;-51
2021/12/18 02:30:53;;;;;;;47.83;43.90;;;-2.00;99.90;;;;;;4159003;28;20419;-52
2021/12/18 02:32:55;;;;;;;46.45;43.60;;;-2.10;99.90;;;;;;4162800;28;20037;-49
2021/12/18 02:35:03;;;;;;;45.95;42.45;;;-2.10;99.90;;;;;;4162532;28;20060;-50
2021/12/18 02:37:08;;;;;;;45.72;42.10;;;-2.10;99.90;;;;;;4162407;28;20037;-52
2021/12/18 02:42:08;;;;;;;42.88;40.22;;;-2.10;99.90;;;;;;4179406;28;20145;-51
2021/12/18 02:44:11;;;;;;;47.00;42.83;;;-2.10;99.90;;;;;;4157771;28;20513;-51
2021/12/18 02:46:19;;;;;;;41.55;38.63;;;-2.00;99.90;;;;;;4154229;28;20042;-51
2021/12/18 02:48:21;;;;;;;43.60;40.63;;;-1.90;99.90;;;;;;4154845;28;20095;-52
2021/12/18 02:50:24;;;;;;;43.00;39.58;;;-1.80;99.90;;;;;;4162565;28;20500;-51
2021/12/18 02:52:29;;;;;;;42.05;39.05;;;-1.80;99.90;;;;;;4157555;28;20095;-49
2021/12/18 02:54:31;;;;;;;53.00;47.85;;;-1.70;99.90;;;;;;4161861;28;20842;-51
2021/12/18 02:56:33;;;;;;;54.53;49.45;;;-1.70;99.90;;;;;;4153833;28;20049;-53
2021/12/18 02:58:41;;;;;;;54.45;49.88;;;-1.90;99.90;;;;;;4169002;28;20041;-52
2021/12/18 03:00:43;;;;;;;50.85;46.88;;;-2.00;99.90;;;;;;4159496;28;20056;-52
2021/12/18 03:02:45;;;;;;;79.20;61.17;;;-2.00;99.90;;;;;;4162959;28;20040;-50
2021/12/18 03:04:53;;;;;;;;;;;-2.10;99.90;;;;;;4160480;28;20041;-52
2021/12/18 03:07:00;;;;;;;52.83;48.00;;;-2.10;99.90;;;;;;4159881;28;19928;-52
2021/12/18 03:26:57;;;;;;;48.80;45.10;;;-2.70;99.90;;;;;;4161763;28;20041;-52
2021/12/18 03:28:59;;;;;;;44.03;41.78;;;-2.50;99.90;;;;;;4160376;28;20501;-52
2021/12/18 03:31:01;;;;;;;39.75;37.35;;;-2.40;99.90;;;;;;4159568;28;20041;-51
2021/12/18 03:33:04;;;;;;;38.30;36.50;;;-2.20;99.90;;;;;;4159217;28;20045;-49
2021/12/18 03:35:06;;;;;;;37.65;35.70;;;-2.00;99.90;;;;;;4162574;28;20049;-51
2021/12/18 03:37:09;;;;;;;38.03;35.80;;;-2.10;99.90;;;;;;4158599;28;20049;-52
2021/12/18 03:39:15;;;;;;;35.20;33.22;;;-2.00;99.90;;;;;;4161087;28;20041;-51
2021/12/18 03:41:18;;;;;;;39.95;37.47;;;-1.90;99.90;;;;;;4158649;28;20671;-51
2021/12/18 03:43:20;;;;;;;43.03;39.92;;;-1.80;99.90;;;;;;4162169;28;20045;-52
2021/12/18 03:45:23;;;;;;;43.85;40.25;;;-1.80;99.90;;;;;;4160695;28;20042;-52
2021/12/18 03:47:25;;;;;;;41.97;39.45;;;-1.90;99.90;;;;;;4161655;28;20064;-51
2021/12/18 03:49:27;;;;;;;41.03;38.15;;;-2.00;99.90;;;;;;4159021;28;20386;-52
2021/12/18 03:51:29;;;;;;;41.13;38.50;;;-2.10;99.90;;;;;;4160930;28;20064;-51
2021/12/18 03:53:31;;;;;;;44.97;41.88;;;-2.00;99.90;;;;;;4159599;28;20542;-51
2021/12/18 03:55:33;;;;;;;44.70;41.60;;;-2.10;99.90;;;;;;4157537;28;20041;-52
2021/12/18 03:57:35;;;;;;;52.47;48.42;;;-2.30;99.90;;;;;;4147425;28;20065;-51
2021/12/18 03:59:37;;;;;;;48.85;45.03;;;-2.40;99.90;;;;;;4160624;28;20080;-52
2021/12/18 04:01:40;;;;;;;47.35;43.63;;;-2.50;99.90;;;;;;4157755;28;20752;-53
2021/12/18 04:03:42;;;;;;;49.25;45.75;;;-2.60;99.90;;;;;;4160521;28;20079;-58
2021/12/18 04:05:50;;;;;;;53.00;49.00;;;-2.60;99.90;;;;;;4154889;28;20033;-50
2021/12/18 04:08:11;;;;;;;50.22;46.70;;;-2.70;99.90;;;;;;4126195;28;20055;-52
2021/12/18 04:10:15;;;;;;;51.10;47.50;;;-2.70;99.90;;;;;;4161317;28;20393;-51
2021/12/18 04:12:17;;;;;;;45.90;42.90;;;-2.70;99.90;;;;;;4161535;28;20394;-52
2021/12/18 04:14:19;;;;;;;49.47;45.38;;;-2.60;99.90;;;;;;4159339;28;20037;-50
2021/12/18 04:16:21;;;;;;;51.35;47.35;;;-2.60;99.90;;;;;;4158852;28;20056;-51
2021/12/18 04:18:24;;;;;;;49.85;46.17;;;-2.70;99.90;;;;;;4149080;28;20072;-52
2021/12/18 04:20:26;;;;;;;;;;;-2.70;99.90;;;;;;4160857;28;20626;-52
2021/12/18 04:22:28;;;;;;;50.80;47.30;;;-2.80;99.90;;;;;;4149360;28;19968;-52
2021/12/18 04:24:30;;;;;;;51.75;47.83;;;-2.70;99.90;;;;;;4161328;28;20044;-53
2021/12/18 04:26:34;;;;;;;47.83;44.58;;;-2.70;99.90;;;;;;4161056;28;20148;-51
2021/12/18 04:28:36;;;;;;;50.58;47.15;;;-2.60;99.90;;;;;;4160403;28;20591;-52
2021/12/18 04:30:38;;;;;;;47.28;44.10;;;-2.60;99.90;;;;;;4161342;28;20045;-52
2021/12/18 04:32:41;;;;;;;48.63;45.35;;;-2.50;99.90;;;;;;4157905;28;20037;-50
2021/12/18 04:34:43;;;;;;;51.63;47.70;;;-2.50;99.90;;;;;;4161146;28;20056;-49
2021/12/18 04:36:45;;;;;;;52.03;48.28;;;-2.60;99.90;;;;;;4158982;28;20087;-50
2021/12/18 04:38:49;;;;;;;53.08;49.20;;;-2.70;99.90;;;;;;4150469;28;20045;-49
2021/12/18 04:40:52;;;;;;;49.15;46.00;;;-2.80;99.90;;;;;;4157704;28;20394;-52
2021/12/18 04:42:55;;;;;;;51.78;48.15;;;-2.80;99.90;;;;;;4161401;28;20037;-51
2021/12/18 04:44:57;;;;;;;49.63;46.03;;;-2.80;99.90;;;;;;4159854;28;20041;-49
2021/12/18 04:46:59;;;;;;;50.05;46.90;;;-2.70;99.90;;;;;;4158385;28;20042;-51
2021/12/18 04:49:02;;;;;;;48.53;45.35;;;-2.80;99.90;;;;;;4159520;28;20374;-51
2021/12/18 04:51:04;;;;;;;50.13;46.40;;;-2.90;99.90;;;;;;4154047;28;20103;-51
2021/12/18 04:53:06;;;;;;;45.47;42.58;;;-3.00;99.90;;;;;;4157266;28;20049;-50
2021/12/18 04:55:09;;;;;;;50.50;47.33;;;-2.90;99.90;;;;;;4160370;28;20100;-49
2021/12/18 04:57:11;;;;;;;48.22;44.85;;;-2.90;99.90;;;;;;4157410;28;20047;-51
2021/12/18 04:59:13;;;;;;;49.22;45.63;;;-3.00;99.90;;;;;;4160842;28;20091;-49
2021/12/18 05:01:17;;;;;;;41.80;39.63;;;-2.90;99.90;;;;;;4159995;28;20033;-52
2021/12/18 05:03:19;;;;;;;44.20;41.53;;;-2.90;99.90;;;;;;4153193;28;20049;-51
2021/12/18 05:05:21;;;;;;;47.15;44.58;;;-2.90;99.90;;;;;;4155844;28;20041;-53
2021/12/18 05:07:23;;;;;;;49.85;46.60;;;-2.90;99.90;;;;;;4159772;28;20057;-52
2021/12/18 05:09:26;;;;;;;49.42;46.30;;;-2.90;99.90;;;;;;4160140;28;20045;-52
2021/12/18 05:11:28;;;;;;;43.67;41.10;;;-3.00;99.90;;;;;;4160947;28;20045;-51
2021/12/18 05:13:30;;;;;;;41.42;39.05;;;-3.00;99.90;;;;;;4156676;28;20041;-51
2021/12/18 05:15:32;;;;;;;41.72;39.53;;;-2.90;99.90;;;;;;4161932;28;20084;-51
2021/12/18 05:17:35;;;;;;;43.38;41.30;;;-3.00;99.90;;;;;;4156519;28;20635;-51
2021/12/18 05:19:37;;;;;;;36.97;35.50;;;-2.90;99.90;;;;;;4159730;28;20579;-52
2021/12/18 05:21:39;;;;;;;40.15;38.35;;;-2.80;99.90;;;;;;4157853;28;20044;-51
2021/12/18 05:23:41;;;;;;;40.78;39.03;;;-2.70;99.90;;;;;;4160210;28;20076;-51
2021/12/18 05:25:43;;;;;;;37.10;35.50;;;-2.60;99.90;;;;;;4159808;28;20390;-52
2021/12/18 05:27:46;;;;;;;39.00;37.20;;;-2.60;99.90;;;;;;4163508;28;20076;-52
2021/12/18 05:29:48;;;;;;;37.80;36.03;;;-2.40;99.90;;;;;;4162087;28;20584;-51
2021/12/18 05:31:50;;;;;;;39.13;37.53;;;-2.30;99.90;;;;;;4154680;28;20034;-52
2021/12/18 05:33:57;;;;;;;36.42;34.83;;;-2.40;99.90;;;;;;4154680;28;20041;-50
2021/12/18 05:36:00;;;;;;;36.85;35.05;;;-2.30;99.90;;;;;;4161486;28;20034;-51
2021/12/18 05:38:05;;;;;;;38.75;36.95;;;-2.10;99.90;;;;;;4152665;28;20119;-49
2021/12/18 05:40:08;;;;;;;34.97;33.17;;;-2.20;99.90;;;;;;4164289;28;20046;-52
2021/12/18 05:42:10;;;;;;;;;;;-2.20;99.90;;;;;;4158454;28;20087;-52
2021/12/18 05:44:12;;;;;;;43.78;41.22;;;-2.30;99.90;;;;;;4159975;28;19995;-51
2021/12/18 05:46:14;;;;;;;43.03;40.17;;;-2.60;99.90;;;;;;4151873;28;20219;-51
2021/12/18 05:48:16;;;;;;;44.30;41.80;;;-2.60;99.90;;;;;;4162762;28;20112;-52
2021/12/18 05:50:20;;;;;;;42.70;40.13;;;-2.70;99.90;;;;;;4159240;28;20124;-52
2021/12/18 05:52:23;;;;;;;41.35;39.45;;;-2.70;99.90;;;;;;4162051;28;20052;-52
2021/12/18 05:54:26;;;;;;;41.00;38.85;;;-2.70;99.90;;;;;;4159668;28;20504;-52
2021/12/18 05:56:28;;;;;;;41.55;39.38;;;-2.60;99.90;;;;;;4161190;28;20382;-52
2021/12/18 05:58:30;;;;;;;38.88;37.10;;;-2.50;99.90;;;;;;4153068;28;20041;-53
2021/12/18 06:00:32;;;;;;;40.92;38.83;;;-2.50;99.90;;;;;;4161950;28;20044;-52
2021/12/18 06:02:35;;;;;;;39.80;37.88;;;-2.50;99.90;;;;;;4159924;28;20505;-52
2021/12/18 06:04:37;;;;;;;43.40;41.17;;;-2.50;99.90;;;;;;4162575;28;20038;-52
2021/12/18 06:06:39;;;;;;;44.28;40.35;;;-2.50;99.90;;;;;;4160431;28;20148;-49
2021/12/18 06:08:42;;;;;;;;;;;-2.60;99.90;;;;;;4163565;28;20040;-51
2021/12/18 06:10:44;;;;;;;45.97;43.28;;;-2.80;99.90;;;;;;4155325;28;19925;-53
2021/12/18 06:12:46;;;;;;;43.95;41.35;;;-2.90;99.90;;;;;;4162317;28;20160;-52
2021/12/18 06:14:49;;;;;;;45.90;43.50;;;-3.00;99.90;;;;;;4160418;28;20091;-49
2021/12/18 06:16:51;;;;;;;46.90;44.35;;;-3.00;99.90;;;;;;4163608;28;20061;-52
2021/12/18 06:18:53;;;;;;;44.63;42.22;;;-3.10;99.90;;;;;;4162012;28;20038;-51
2021/12/18 06:20:55;;;;;;;41.95;39.67;;;-3.00;99.90;;;;;;4164901;28;20083;-53
2021/12/18 06:22:57;;;;;;;40.53;38.50;;;-2.90;99.90;;;;;;4162705;28;20091;-52
2021/12/18 06:24:59;;;;;;;41.38;38.92;;;-2.90;99.90;;;;;;4163040;28;20037;-50
2021/12/18 06:27:02;;;;;;;39.25;37.80;;;-2.80;99.90;;;;;;4149730;28;20037;-50
2021/12/18 06:29:04;;;;;;;35.97;34.70;;;-2.60;99.90;;;;;;4163409;28;20060;-50
2021/12/18 06:31:06;;;;;;;35.47;34.30;;;-2.40;99.90;;;;;;4162707;28;20501;-49
2021/12/18 06:33:08;;;;;;;41.28;39.08;;;-2.30;99.90;;;;;;4162225;28;20068;-48
2021/12/18 06:35:11;;;;;;;40.90;39.05;;;-2.30;99.90;;;;;;4149532;28;20037;-49
2021/12/18 06:37:13;;;;;;;39.25;37.70;;;-2.30;99.90;;;;;;4163361;28;20099;-51
2021/12/18 06:39:15;;;;;;;42.38;39.63;;;-2.30;99.90;;;;;;4155444;28;20505;-48
2021/12/18 06:41:17;;;;;;;40.75;38.70;;;-2.20;99.90;;;;;;4163046;28;20042;-51
2021/12/18 06:43:19;;;;;;;42.35;39.65;;;-2.20;99.90;;;;;;4151391;28;20026;-47
2021/12/18 06:45:21;;;;;;;41.20;38.63;;;-2.20;99.90;;;;;;4162398;28;20036;-50
2021/12/18 06:47:23;;;;;;;48.47;45.00;;;-2.30;99.90;;;;;;4148494;28;20592;-51
2021/12/18 06:49:26;;;;;;;46.28;43.50;;;-2.50;99.90;;;;;;4161113;28;20490;-50
2021/12/18 06:51:28;;;;;;;45.90;43.30;;;-2.60;99.90;;;;;;4152214;28;20053;-50
2021/12/18 06:53:30;;;;;;;43.58;41.00;;;-2.70;99.90;;;;;;4162732;28;20040;-51
2021/12/18 06:55:34;;;;;;;44.38;41.75;;;-2.60;99.90;;;;;;4148555;28;20049;-49
2021/12/18 06:57:36;;;;;;;47.28;44.50;;;-2.60;99.90;;;;;;4158470;28;20379;-48
2021/12/18 06:59:38;;;;;;;48.33;45.13;;;-2.70;99.90;;;;;;4165065;28;20456;-52
2021/12/18 07:01:40;;;;;;;47.13;43.80;;;-2.80;99.90;;;;;;4160946;28;20029;-51
2021/12/18 07:03:42;;;;;;;48.03;45.10;;;-2.80;99.90;;;;;;4163602;28;20037;-50
2021/12/18 07:05:45;;;;;;;49.63;46.42;;;-2.80;99.90;;;;;;4160360;28;20095;-50
2021/12/18 07:07:47;;;;;;;47.67;44.58;;;-2.80;99.90;;;;;;4162358;28;20040;-51
2021/12/18 07:09:49;;;;;;;44.15;41.20;;;-2.90;99.90;;;;;;4162698;28;20041;-48
2021/12/18 07:11:51;;;;;;;42.55;39.97;;;-2.90;99.90;;;;;;4150183;28;20042;-47
2021/12/18 07:13:55;;;;;;;48.33;45.10;;;-2.90;99.90;;;;;;4155721;28;20040;-47
2021/12/18 07:15:59;;;;;;;48.45;45.45;;;-2.90;99.90;;;;;;4163421;28;20042;-49
2021/12/18 07:18:01;;;;;;;43.65;40.55;;;-2.90;99.90;;;;;;4160670;28;20048;-48
2021/12/18 07:20:07;;;;;;;43.03;40.58;;;-2.90;99.90;;;;;;4157484;28;20030;-50
2021/12/18 07:22:09;;;;;;;45.53;42.90;;;-2.90;99.90;;;;;;4156954;28;20053;-50
2021/12/18 07:24:11;;;;;;;45.03;42.47;;;-2.90;99.90;;;;;;4154840;28;20029;-50
2021/12/18 07:26:13;;;;;;;42.28;40.47;;;-2.80;99.90;;;;;;4158674;28;20042;-50
2021/12/18 07:28:15;;;;;;;38.80;37.15;;;-2.70;99.90;;;;;;4162768;28;20037;-50
2021/12/18 07:30:22;;;;;;;41.47;39.47;;;-2.50;99.90;;;;;;4158462;28;20038;-50
2021/12/18 07:32:24;;;;;;;44.00;41.58;;;-2.40;99.90;;;;;;4160272;28;20092;-51
2021/12/18 07:34:27;;;;;;;43.03;40.72;;;-2.30;99.90;;;;;;4157923;28;20044;-50
2021/12/18 07:36:29;;;;;;;44.67;42.40;;;-2.20;99.90;;;;;;4162191;28;20072;-52
2021/12/18 07:38:32;;;;;;;39.05;37.33;;;-2.20;99.90;;;;;;4157079;28;20505;-50
2021/12/18 07:40:34;;;;;;;41.65;39.75;;;-2.10;99.90;;;;;;4162167;28;20033;-50
2021/12/18 07:42:37;;;;;;;50.50;47.00;;;-2.00;99.90;;;;;;4158842;28;20041;-50
2021/12/18 07:44:42;;;;;;;145.27;100.20;;;-1.90;99.90;;;;;;4159146;28;20468;-51
2021/12/18 07:46:45;;;;;;;62.05;55.65;;;-1.80;99.90;;;;;;4152574;28;20045;-48
2021/12/18 07:48:47;;;;;;;63.22;58.38;;;-1.90;99.90;;;;;;4159421;28;20034;-50
2021/12/18 07:50:49;;;;;;;47.90;45.35;;;-1.90;99.90;;;;;;4150807;28;20382;-49
2021/12/18 07:52:51;;;;;;;44.05;41.70;;;-1.90;99.90;;;;;;4157806;28;20044;-47
2021/12/18 07:54:53;;;;;;;39.38;37.75;;;-1.80;99.90;;;;;;4147736;28;20093;-49
2021/12/18 07:56:56;;;;;;;37.20;35.40;;;-1.80;99.90;;;;;;4158457;28;20065;-50
2021/12/18 07:58:58;;;;;;;39.63;38.13;;;-1.60;99.90;;;;;;4154221;28;20594;-50
2021/12/18 08:01:00;;;;;;;36.10;34.45;;;-1.50;99.90;;;;;;4158390;28;20087;-52
2021/12/18 08:03:03;;;;;;;35.53;33.92;;;-1.50;99.90;;;;;;4154689;28;20135;-50
2021/12/18 08:05:05;;;;;;;;;;;-1.50;99.90;;;;;;4157355;28;20033;-50
2021/12/18 08:07:07;;;;;;;39.25;37.60;;;-1.40;99.90;;;;;;4159788;28;19925;-48
2021/12/18 08:09:10;;;;;;;39.63;37.78;;;-1.30;99.90;;;;;;4158065;28;20049;-50
2021/12/18 08:11:13;;;;;;;39.35;37.42;;;-1.20;99.90;;;;;;4158373;28;20045;-47
2021/12/18 08:13:15;;;;;;;37.80;36.22;;;-1.20;99.90;;;;;;4159400;28;20033;-48
2021/12/18 08:15:17;;;;;;;35.25;33.38;;;-1.20;99.90;;;;;;4152929;28;20546;-49
2021/12/18 08:17:20;;;;;;;34.22;33.08;;;-1.10;99.90;;;;;;4156591;28;20084;-46
2021/12/18 08:19:22;;;;;;;36.95;34.95;;;-1.00;99.90;;;;;;4156442;28;20045;-50
2021/12/18 08:21:24;;;;;;;43.13;40.15;;;-1.00;99.90;;;;;;4154548;28;20029;-48
2021/12/18 08:23:26;;;;;;;41.97;39.47;;;-1.00;99.90;;;;;;4152014;28;20064;-50
2021/12/18 08:25:30;;;;;;;39.33;36.97;;;-1.10;99.90;;;;;;4154805;28;20044;-48
2021/12/18 08:27:32;;;;;;;33.28;31.63;;;-1.10;99.90;;;;;;4154118;28;20056;-50
2021/12/18 08:29:35;;;;;;;27.30;25.70;;;-0.90;99.90;;;;;;4152737;28;20029;-46
2021/12/18 08:31:38;;;;;;;11.70;11.43;;;-0.80;99.90;;;;;;4162011;28;20540;-50
2021/12/18 08:33:40;;;;;;;23.38;21.75;;;-0.60;99.90;;;;;;4152924;28;20107;-50
2021/12/18 08:35:42;;;;;;;20.83;19.20;;;-0.50;99.90;;;;;;4163553;28;20041;-51
2021/12/18 08:37:45;;;;;;;19.17;18.02;;;-0.50;99.90;;;;;;4156995;28;20071;-51
2021/12/18 08:39:48;;;;;;;13.88;13.20;;;-0.40;99.90;;;;;;4153868;28;20174;-48
2021/12/18 08:41:50;;;;;;;18.38;16.45;;;-0.30;99.90;;;;;;4152802;28;20037;-48
2021/12/18 08:43:52;;;;;;;17.63;16.17;;;-0.10;99.90;;;;;;4158072;28;20208;-50
2021/12/18 08:45:55;;;;;;;19.52;17.45;;;0.00;99.90;;;;;;4157988;28;20096;-48
2021/12/18 08:47:58;;;;;;;8.77;8.65;;;0.10;99.90;;;;;;4159947;28;20037;-47
2021/12/18 08:50:00;;;;;;;9.73;8.88;;;0.30;99.90;;;;;;4152450;28;20037;-48
2021/12/18 08:52:02;;;;;;;17.45;15.70;;;0.70;99.90;;;;;;4151038;28;20045;-49
2021/12/18 08:54:05;;;;;;;25.80;21.60;;;0.70;99.90;;;;;;4154679;28;20457;-48
2021/12/18 08:56:07;;;;;;;;;;;0.70;99.90;;;;;;4161167;28;20134;-50
2021/12/18 08:58:11;;;;;;;20.73;18.90;;;0.60;99.90;;;;;;4150371;28;20349;-49
2021/12/18 09:00:17;;;;;;;16.25;15.00;;;0.60;99.90;;;;;;4160620;28;20034;-48
2021/12/18 09:02:19;;;;;;;11.38;10.98;;;0.70;99.90;;;;;;4160248;28;20041;-49
2021/12/18 09:04:21;;;;;;;12.15;11.77;;;0.90;99.90;;;;;;4163721;28;20052;-47
2021/12/18 09:06:24;;;;;;;10.65;10.45;;;1.00;99.90;;;;;;4157027;28;20804;-49
2021/12/18 09:08:26;;;;;;;8.23;8.10;;;1.10;99.90;;;;;;4163210;28;20087;-48
2021/12/18 09:10:28;;;;;;;13.43;12.82;;;1.40;99.90;;;;;;4164748;28;20044;-47
2021/12/18 09:12:31;;;;;;;16.75;15.70;;;1.50;99.90;;;;;;4162041;28;20037;-50
2021/12/18 09:14:33;;;;;;;30.45;27.42;;;1.60;99.90;;;;;;4163373;28;20045;-48
2021/12/18 09:16:35;;;;;;;22.13;19.98;;;1.90;99.90;;;;;;4163080;28;20041;-50
2021/12/18 09:18:37;;;;;;;10.10;9.80;;;2.10;99.90;;;;;;4164446;28;20042;-50
2021/12/18 09:20:41;;;;;;;14.75;13.77;;;2.10;99.90;;;;;;4163259;28;20513;-48
2021/12/18 09:22:43;;;;;;;10.85;10.35;;;2.00;99.90;;;;;;4180871;28;20469;-48
2021/12/18 09:24:46;;;;;;;15.38;14.07;;;2.00;99.90;;;;;;4163535;28;20034;-49
2021/12/18 09:26:49;;;;;;;13.48;12.77;;;2.10;99.90;;;;;;4160348;28;20042;-49
2021/12/18 09:28:51;;;;;;;15.85;14.77;;;2.20;99.90;;;;;;4156445;28;20041;-49
2021/12/18 09:30:53;;;;;;;17.63;16.13;;;2.20;99.90;;;;;;4159713;28;20045;-49
2021/12/18 09:32:55;;;;;;;17.95;16.40;;;2.20;99.90;;;;;;4157262;28;20049;-49
2021/12/18 09:34:57;;;;;;;20.00;17.83;;;2.20;99.90;;;;;;4160704;28;20099;-48
2021/12/18 09:37:00;;;;;;;14.80;13.68;;;2.30;99.90;;;;;;4160897;28;20049;-48
2021/12/18 09:39:04;;;;;;;13.32;12.55;;;2.30;99.90;;;;;;4161610;28;20084;-48
2021/12/18 09:41:06;;;;;;;16.95;15.32;;;2.40;99.90;;;;;;4158530;28;20753;-49
2021/12/18 09:43:09;;;;;;;15.25;13.85;;;2.60;99.90;;;;;;4161737;28;20559;-48
2021/12/18 09:45:13;;;;;;;15.38;14.25;;;2.70;99.90;;;;;;4162156;28;20444;-48
2021/12/18 09:47:15;;;;;;;12.88;12.23;;;2.70;99.90;;;;;;4165485;28;20034;-51
2021/12/18 09:49:17;;;;;;;12.40;11.93;;;2.80;99.90;;;;;;4162989;28;20445;-52
2021/12/18 09:51:27;;;;;;;14.02;12.88;;;2.90;99.90;;;;;;4172553;28;20151;-49
2021/12/18 09:53:29;;;;;;;20.42;18.55;;;3.00;99.90;;;;;;4166895;28;20355;-52
2021/12/18 09:55:31;;;;;;;15.13;14.02;;;3.30;99.90;;;;;;4164593;28;20537;-52
2021/12/18 09:57:34;;;;;;;11.27;10.48;;;3.40;99.90;;;;;;4161531;28;20551;-52
2021/12/18 09:59:37;;;;;;;10.82;10.07;;;3.50;99.90;;;;;;4164455;28;20052;-52
2021/12/18 10:01:39;;;;;;;13.38;12.35;;;3.60;99.90;;;;;;4161599;28;20039;-51
2021/12/18 10:03:42;;;;;;;;;;;3.70;99.90;;;;;;4164675;28;20037;-52
2021/12/18 10:05:45;;;;;;;;;;;3.80;99.90;;;;;;4163848;28;19921;-52
2021/12/18 10:08:09;;;;;;;8.82;8.35;;;3.90;99.90;;;;;;4164036;28;19921;-52
2021/12/18 10:10:11;;;;;;;10.35;9.50;;;4.00;99.90;;;;;;4163956;28;20042;-51
2021/12/18 10:12:20;;;;;;;10.75;10.15;;;4.10;99.90;;;;;;4158933;28;20042;-51
2021/12/18 10:14:37;;;;;;;8.57;8.25;;;4.20;99.90;;;;;;4159340;28;20037;-52
2021/12/18 10:16:50;;;;;;;8.32;7.68;;;4.40;99.90;;;;;;4164508;28;20037;-51
2021/12/18 10:18:52;;;;;;;9.38;8.45;;;4.60;99.90;;;;;;4161985;28;20037;-52
2021/12/18 10:21:08;;;;;;;8.50;8.07;;;4.80;99.90;;;;;;4164589;28;20450;-52
2021/12/18 10:23:10;;;;;;;8.75;8.35;;;4.90;99.90;;;;;;4161947;28;20088;-52
2021/12/18 10:25:14;;;;;;;11.15;10.05;;;5.10;99.90;;;;;;4158428;28;20088;-51
2021/12/18 10:27:24;;;;;;;11.63;10.70;;;5.70;99.90;;;;;;4162472;28;20037;-53
2021/12/18 10:29:35;;;;;;;11.00;9.90;;;6.20;99.90;;;;;;4161360;28;20104;-53
2021/12/18 10:31:43;;;;;;;7.25;6.72;;;6.80;99.90;;;;;;4160379;28;20091;-52
2021/12/18 10:33:45;;;;;;;8.18;7.43;;;7.10;99.90;;;;;;4164313;28;20103;-52
2021/12/18 10:35:53;;;;;;;7.68;7.18;;;7.30;99.90;;;;;;4162045;28;20045;-53
2021/12/18 10:37:55;;;;;;;8.35;7.60;;;7.70;99.90;;;;;;4148097;28;20042;-53
2021/12/18 10:40:05;;;;;;;10.55;9.75;;;7.90;99.90;;;;;;4162909;28;20824;-53
2021/12/18 10:42:33;;;;;;;12.15;11.05;;;8.20;99.90;;;;;;4152526;28;20045;-52
2021/12/18 10:44:36;;;;;;;10.27;9.48;;;7.90;99.90;;;;;;4156492;28;20038;-52
2021/12/18 10:46:43;;;;;;;12.43;11.43;;;7.70;99.90;;;;;;4156080;28;20418;-52
2021/12/18 10:48:58;;;;;;;16.75;12.45;;;7.70;99.90;;;;;;4155479;28;20571;-52
2021/12/18 10:51:00;;;;;;;11.13;10.10;;;7.70;99.90;;;;;;4154244;28;20049;-53
2021/12/18 10:53:04;;;;;;;7.18;6.68;;;7.70;99.90;;;;;;4160024;28;20088;-52
2021/12/18 10:55:07;;;;;;;6.72;6.32;;;7.70;99.90;;;;;;4155856;28;20042;-53
2021/12/18 10:57:19;;;;;;;;;;;7.70;99.90;;;;;;4153226;28;20046;-48
2021/12/18 10:59:25;;;;;;;6.75;6.15;;;8.20;99.90;;;;;;4147756;28;20024;-47
2021/12/18 11:01:29;;;;;;;6.68;6.20;;;9.00;99.90;;;;;;4151011;28;20518;-47
2021/12/18 11:03:39;;;;;;;7.82;7.15;;;9.60;99.90;;;;;;4150384;28;20109;-47
2021/12/18 11:05:41;;;;;;;9.68;8.27;;;10.10;99.90;;;;;;4152162;28;20044;-47
2021/12/18 11:07:46;;;;;;;9.43;7.78;;;9.70;99.90;;;;;;4153627;28;20153;-50
2021/12/18 11:10:11;;;;;;;8.13;7.43;;;9.30;99.90;;;;;;4157520;28;20052;-51
2021/12/18 11:14:43;;;;;;;13.57;11.75;;;8.60;99.90;;;;;;4149979;28;20049;-50
2021/12/18 11:16:51;;;;;;;13.25;12.13;;;8.60;99.90;;;;;;4154022;28;20045;-49
2021/12/18 11:18:55;;;;;;;10.63;9.40;;;8.60;99.90;;;;;;4154829;28;20049;-47
2021/12/18 11:20:57;;;;;;;17.92;15.50;;;8.60;99.90;;;;;;4157103;28;20045;-50